C. Angelo — WCZ5866 — position and weather

sailwx.info

Track history (hours):
 
Tides and Currents Weather Stations Pressure Air Temp Water Temp Dewpoint Dewpoint Depression Visibility Wind Speed Wind Dir Waves Ship Positions

C. Angelo

Owner: G T 110 INC, NEW HAVEN, CT. More information available from US FCC via Universal Licensing System and Coast Guard Vessel Documentation Center.

Last reported at 2015-Aug-04 09:31 UTC. Time now 2015-Aug-04 09:40 UTC.
Position N 37°48' W 075°01'.

Length 30 m; draft 4 m.

Type: Tug. MMSI: 366988420.

Date/timePositionNaut miles runAvg speedWind from/ knotsBaromVisibWave heightAir tempDewpointWater temp
2015-Aug-04 09:31N 37°48' W 075°01'8 5.9
2015-Aug-04 08:12N 37°41' W 075°05'10 6.2
2015-Aug-04 06:33N 37°32' W 075°10'21 6.2
2015-Aug-04 03:10N 37°12' W 075°21'4 6.1
2015-Aug-04 02:33N 37°09' W 075°23'  
2015-Jul-29 08:32N 33°13' W 079°11'181 8.2
2015-Jul-28 10:23N 34°37' W 075°58'28 8.4
2015-Jul-28 07:04N 34°56' W 075°34'5 7.8
2015-Jul-28 06:28N 34°59' W 075°30'8 7.7
2015-Jul-28 05:28N 35°05' W 075°23'188 8.5
2015-Jul-27 07:20N 38°09' W 074°35'7 9.1
2015-Jul-27 06:31N 38°15' W 074°30'20 9.1
2015-Jul-27 04:21N 38°31' W 074°16'7 9.1
2015-Jul-27 03:33N 38°37' W 074°11'9 9.2
2015-Jul-27 02:33N 38°45' W 074°04'9 9.3
2015-Jul-27 01:33N 38°52' W 073°57'9 9.1
2015-Jul-27 00:33N 38°60' W 073°50'10 8.9
2015-Jul-26 23:28N 39°08' W 073°43'9 9.0
2015-Jul-26 22:26N 39°15' W 073°36'55 8.7
2015-Jul-26 16:06N 40°01' W 072°55'7 8.9
2015-Jul-26 15:22N 40°06' W 072°50'116 9.0
2015-Jul-26 02:32N 41°39' W 071°19'8 8.4
2015-Jul-26 01:33N 41°47' W 071°23'1 1.2
2015-Jul-26 00:33N 41°48' W 071°23'0 0.0
2015-Jul-25 23:33N 41°48' W 071°23'0 0.0
2015-Jul-25 22:33N 41°48' W 071°23'0 0.0
2015-Jul-25 21:33N 41°48' W 071°23'0 0.0
2015-Jul-25 20:33N 41°48' W 071°23'0 0.0
2015-Jul-25 19:33N 41°48' W 071°23'0 0.0
2015-Jul-25 15:13N 41°48' W 071°23'0 0.0
2015-Jul-25 14:33N 41°48' W 071°23'0 0.0
2015-Jul-25 13:04N 41°48' W 071°23'0 0.0
2015-Jul-25 12:05N 41°48' W 071°23'0 0.0
2015-Jul-25 10:16N 41°48' W 071°23'0 0.0
2015-Jul-25 09:33N 41°48' W 071°23'  
Track history (hours):
 
Tides and Currents Weather Stations Pressure Air Temp Water Temp Dewpoint Dewpoint Depression Visibility Wind Speed Wind Dir Waves Ship Positions

C. Angelo

Owner: G T 110 INC, NEW HAVEN, CT. More information available from US FCC via Universal Licensing System and Coast Guard Vessel Documentation Center.

Last reported at 2015-Aug-04 09:31 UTC. Time now 2015-Aug-04 09:40 UTC.
Position N 37°48' W 075°01'.

Length 30 m; draft 4 m.

Type: Tug. MMSI: 366988420.

Date/timePositionNaut miles runAvg speedWind from/ knotsBaromVisibWave heightAir tempDewpointWater temp
2015-Aug-04 09:31N 37°48' W 075°01'8 5.9
2015-Aug-04 08:12N 37°41' W 075°05'10 6.2
2015-Aug-04 06:33N 37°32' W 075°10'21 6.2
2015-Aug-04 03:10N 37°12' W 075°21'4 6.1
2015-Aug-04 02:33N 37°09' W 075°23'  
2015-Jul-29 08:32N 33°13' W 079°11'181 8.2
2015-Jul-28 10:23N 34°37' W 075°58'28 8.4
2015-Jul-28 07:04N 34°56' W 075°34'5 7.8
2015-Jul-28 06:28N 34°59' W 075°30'8 7.7
2015-Jul-28 05:28N 35°05' W 075°23'188 8.5
2015-Jul-27 07:20N 38°09' W 074°35'7 9.1
2015-Jul-27 06:31N 38°15' W 074°30'20 9.1
2015-Jul-27 04:21N 38°31' W 074°16'7 9.1
2015-Jul-27 03:33N 38°37' W 074°11'9 9.2
2015-Jul-27 02:33N 38°45' W 074°04'9 9.3
2015-Jul-27 01:33N 38°52' W 073°57'9 9.1
2015-Jul-27 00:33N 38°60' W 073°50'10 8.9
2015-Jul-26 23:28N 39°08' W 073°43'9 9.0
2015-Jul-26 22:26N 39°15' W 073°36'55 8.7
2015-Jul-26 16:06N 40°01' W 072°55'7 8.9
2015-Jul-26 15:22N 40°06' W 072°50'116 9.0
2015-Jul-26 02:32N 41°39' W 071°19'8 8.4
2015-Jul-26 01:33N 41°47' W 071°23'1 1.2
2015-Jul-26 00:33N 41°48' W 071°23'0 0.0
2015-Jul-25 23:33N 41°48' W 071°23'0 0.0
2015-Jul-25 22:33N 41°48' W 071°23'0 0.0
2015-Jul-25 21:33N 41°48' W 071°23'0 0.0
2015-Jul-25 20:33N 41°48' W 071°23'0 0.0
2015-Jul-25 19:33N 41°48' W 071°23'0 0.0
2015-Jul-25 15:13N 41°48' W 071°23'0 0.0
2015-Jul-25 14:33N 41°48' W 071°23'0 0.0
2015-Jul-25 13:04N 41°48' W 071°23'0 0.0
2015-Jul-25 12:05N 41°48' W 071°23'0 0.0
2015-Jul-25 10:16N 41°48' W 071°23'0 0.0
2015-Jul-25 09:33N 41°48' W 071°23'  

Dump ship's entire track history